createdAt,value
2022-09-18T00:04:49.158Z,12.42
2022-09-18T00:09:50.728Z,12.48
2022-09-18T00:14:52.311Z,12.29
2022-09-18T00:19:53.939Z,12.58
2022-09-18T00:24:55.713Z,12.29
2022-09-18T00:29:57.257Z,12.44
2022-09-18T00:34:58.786Z,12.29
2022-09-18T00:40:00.362Z,12.38
2022-09-18T00:45:02.226Z,12.43
2022-09-18T00:50:13.842Z,12.37
2022-09-18T00:55:16.232Z,12.48
2022-09-18T01:00:17.989Z,12.41
2022-09-18T01:05:46.191Z,12.40
2022-09-18T01:11:03.798Z,12.52
2022-09-18T01:16:34.372Z,12.61
2022-09-18T01:22:13.867Z,12.61
2022-09-18T01:27:34.633Z,12.44
2022-09-18T01:32:59.679Z,12.38
2022-09-18T01:38:15.800Z,12.53
2022-09-18T01:43:19.368Z,12.40
2022-09-18T01:48:27.568Z,12.39
2022-09-18T01:53:37.142Z,12.40
2022-09-18T01:58:38.988Z,12.13
2022-09-18T02:04:03.154Z,12.26
2022-09-18T02:09:05.232Z,12.33
2022-09-18T02:14:18.009Z,12.22
2022-09-18T02:19:44.238Z,12.20
2022-09-18T02:24:47.294Z,12.04
2022-09-18T02:29:49.194Z,12.09
2022-09-18T02:34:50.794Z,12.23
2022-09-18T02:40:19.213Z,12.27
2022-09-18T02:45:48.413Z,12.29
2022-09-18T02:50:59.966Z,12.24
2022-09-18T02:56:06.061Z,12.15
2022-09-18T03:01:10.303Z,12.19
2022-09-18T03:06:12.017Z,12.01
2022-09-18T03:11:13.675Z,12.10
2022-09-18T03:16:15.670Z,12.20
2022-09-18T03:21:17.561Z,12.08
2022-09-18T03:26:19.504Z,12.18
2022-09-18T03:31:21.131Z,11.94
2022-09-18T03:36:23.724Z,11.96
2022-09-18T03:41:26.993Z,12.15
2022-09-18T03:46:30.942Z,12.09
2022-09-18T03:51:35.366Z,11.92
2022-09-18T03:56:39.807Z,11.88
2022-09-18T04:01:49.107Z,12.04
2022-09-18T04:07:02.596Z,11.93
2022-09-18T04:12:22.743Z,11.61
2022-09-18T04:17:38.264Z,11.92
2022-09-18T04:22:40.074Z,11.88
2022-09-18T04:27:42.230Z,11.93
2022-09-18T04:32:44.521Z,11.93
2022-09-18T04:37:46.130Z,12.05
2022-09-18T04:42:48.130Z,11.63
2022-09-18T04:47:50.367Z,11.98
2022-09-18T04:52:54.515Z,11.81
2022-09-18T04:57:57.295Z,11.87
2022-09-18T05:02:59.028Z,11.86
2022-09-18T05:08:03.751Z,11.75
2022-09-18T05:13:05.883Z,11.96
2022-09-18T05:18:12.538Z,11.83
2022-09-18T05:23:14.864Z,11.85
2022-09-18T05:28:19.146Z,11.87
2022-09-18T05:33:24.018Z,11.81
2022-09-18T05:38:26.409Z,11.88
2022-09-18T05:43:29.675Z,11.98
2022-09-18T05:48:31.281Z,12.07
2022-09-18T05:53:33.314Z,12.00
2022-09-18T05:58:40.964Z,11.85
2022-09-18T06:03:42.553Z,11.89
2022-09-18T06:08:44.363Z,12.05
2022-09-18T06:13:51.617Z,11.93
2022-09-18T06:18:53.195Z,12.03
2022-09-18T06:23:56.821Z,11.99
2022-09-18T06:29:04.979Z,12.24
2022-09-18T06:34:38.820Z,12.10
2022-09-18T06:39:49.057Z,12.24
2022-09-18T06:46:11.823Z,12.34
2022-09-18T06:51:25.243Z,12.36
2022-09-18T06:56:48.000Z,12.54
2022-09-18T07:01:52.863Z,12.45
2022-09-18T07:07:13.367Z,12.38
2022-09-18T07:12:17.313Z,12.45
2022-09-18T07:17:26.392Z,12.48
2022-09-18T07:22:31.509Z,12.58
2022-09-18T07:27:33.723Z,12.76
2022-09-18T07:32:35.990Z,12.92
2022-09-18T07:37:43.821Z,12.97
2022-09-18T07:42:51.831Z,13.05
2022-09-18T07:47:56.518Z,13.07
2022-09-18T07:53:00.074Z,13.04
2022-09-18T07:58:07.038Z,13.48
2022-09-18T08:03:27.309Z,13.53
2022-09-18T08:08:42.440Z,13.69
2022-09-18T08:13:56.480Z,13.49
2022-09-18T08:19:14.332Z,13.72
2022-09-18T08:24:20.155Z,13.77
2022-09-18T08:29:21.831Z,13.86
2022-09-18T08:34:28.843Z,13.75
2022-09-18T08:39:31.016Z,13.82
2022-09-18T08:44:43.389Z,13.89
2022-09-18T08:49:49.790Z,14.16
2022-09-18T08:54:56.978Z,14.33
2022-09-18T09:00:23.655Z,14.35
2022-09-18T09:05:49.767Z,14.29
2022-09-18T09:11:18.990Z,14.34
2022-09-18T09:16:50.570Z,14.44
2022-09-18T09:22:03.755Z,14.55
2022-09-18T09:27:18.657Z,14.41
2022-09-18T09:32:51.569Z,14.58
2022-09-18T09:38:43.402Z,14.56
2022-09-18T09:43:52.433Z,14.62
2022-09-18T09:49:01.456Z,14.76
2022-09-18T09:54:03.144Z,14.73
2022-09-18T09:59:27.898Z,14.70
2022-09-18T10:04:54.764Z,14.72
2022-09-18T10:10:04.099Z,14.84
2022-09-18T10:15:15.107Z,14.89
2022-09-18T10:20:18.914Z,14.79
2022-09-18T10:25:28.246Z,14.97
2022-09-18T10:30:31.229Z,15.08
2022-09-18T10:35:44.643Z,15.12
2022-09-18T10:40:47.960Z,15.01
2022-09-18T10:45:52.707Z,15.31
2022-09-18T10:51:04.316Z,15.16
2022-09-18T10:56:20.040Z,15.19
2022-09-18T11:01:25.110Z,14.80
2022-09-18T11:06:31.365Z,15.19
2022-09-18T11:11:44.848Z,15.26
2022-09-18T11:16:59.204Z,15.11
2022-09-18T11:22:05.804Z,15.03
2022-09-18T11:27:24.569Z,14.99
2022-09-18T11:32:31.786Z,14.01
2022-09-18T11:37:49.003Z,14.26
2022-09-18T11:42:54.135Z,14.61
2022-09-18T11:48:04.164Z,14.61
2022-09-18T11:53:39.422Z,14.78
2022-09-18T11:58:48.746Z,15.12
2022-09-18T12:03:57.730Z,15.16
2022-09-18T12:08:57.952Z,15.37
2022-09-18T12:14:32.284Z,15.54
2022-09-18T12:20:00.045Z,15.34
2022-09-18T12:25:14.236Z,15.44
2022-09-18T12:31:03.973Z,15.52
2022-09-18T12:36:14.586Z,15.59
2022-09-18T12:42:06.938Z,15.57
2022-09-18T12:47:27.473Z,15.70
2022-09-18T12:53:09.374Z,15.51
2022-09-18T12:58:35.760Z,15.52
2022-09-18T13:03:39.634Z,15.45
2022-09-18T13:08:52.066Z,15.44
2022-09-18T13:13:57.625Z,15.67
2022-09-18T13:19:07.445Z,15.61
2022-09-18T13:24:14.392Z,15.62
2022-09-18T13:29:46.528Z,15.59
2022-09-18T13:35:14.124Z,15.58
2022-09-18T13:40:35.851Z,15.57
2022-09-18T13:45:38.179Z,15.51
2022-09-18T13:50:50.964Z,15.62
2022-09-18T13:55:52.493Z,15.41
2022-09-18T14:00:54.110Z,15.52
2022-09-18T14:05:55.742Z,15.28
2022-09-18T14:11:17.225Z,15.15
2022-09-18T14:16:18.904Z,15.09
2022-09-18T14:21:25.053Z,15.12
2022-09-18T14:26:33.608Z,15.09
2022-09-18T14:31:45.514Z,14.86
2022-09-18T14:36:49.691Z,14.84
2022-09-18T14:41:53.278Z,14.87
2022-09-18T14:46:57.910Z,14.80
2022-09-18T14:52:06.390Z,14.52
2022-09-18T14:57:13.067Z,14.38
2022-09-18T15:02:21.949Z,14.19
2022-09-18T15:07:23.543Z,14.16
2022-09-18T15:12:26.343Z,13.99
2022-09-18T15:17:28.364Z,13.79
2022-09-18T15:22:30.083Z,14.04
2022-09-18T15:27:32.031Z,14.02
2022-09-18T15:32:44.681Z,13.85
2022-09-18T15:37:58.806Z,13.55
2022-09-18T15:43:04.842Z,13.62
2022-09-18T15:48:43.795Z,13.28
2022-09-18T15:54:04.438Z,13.69
2022-09-18T15:59:08.088Z,13.41
2022-09-18T16:04:22.776Z,13.24
2022-09-18T16:09:33.563Z,13.21
2022-09-18T16:14:43.885Z,13.54
2022-09-18T16:19:46.497Z,13.30
2022-09-18T16:24:48.097Z,13.27
2022-09-18T16:29:49.878Z,13.32
2022-09-18T16:34:51.382Z,13.23
2022-09-18T16:39:52.940Z,13.62
2022-09-18T16:44:54.853Z,13.55
2022-09-18T16:49:56.516Z,13.64
2022-09-18T16:54:58.061Z,13.41
2022-09-18T17:00:02.404Z,13.42
2022-09-18T17:05:04.287Z,13.44
2022-09-18T17:10:06.271Z,13.42
2022-09-18T17:15:08.912Z,13.34
2022-09-18T17:20:10.438Z,13.39
2022-09-18T17:25:12.362Z,13.39
2022-09-18T17:30:13.914Z,13.40
2022-09-18T17:35:16.491Z,13.43
2022-09-18T17:40:19.514Z,12.90
2022-09-18T17:45:21.109Z,13.00
2022-09-18T17:50:24.691Z,13.18
2022-09-18T17:55:26.207Z,13.03
2022-09-18T18:00:28.218Z,12.96
2022-09-18T18:05:29.854Z,12.46
2022-09-18T18:10:31.492Z,12.87
2022-09-18T18:15:33.027Z,12.68
2022-09-18T18:20:34.834Z,12.51
2022-09-18T18:25:36.563Z,12.51
2022-09-18T18:30:38.984Z,12.67
2022-09-18T18:35:40.503Z,12.29
2022-09-18T18:40:42.292Z,12.41
2022-09-18T18:45:55.912Z,12.59
2022-09-18T18:50:59.523Z,12.46
2022-09-18T18:56:02.576Z,12.47
2022-09-18T19:01:14.607Z,12.18
2022-09-18T19:06:16.923Z,12.15
2022-09-18T19:11:21.692Z,12.40
2022-09-18T19:16:28.705Z,11.99
2022-09-18T19:21:30.352Z,12.19
2022-09-18T19:26:31.939Z,11.98
2022-09-18T19:31:34.310Z,12.18
2022-09-18T19:36:36.508Z,12.11
2022-09-18T19:41:44.791Z,11.98
2022-09-18T19:46:48.078Z,12.04
2022-09-18T19:51:49.727Z,12.19
2022-09-18T19:56:52.123Z,11.86
2022-09-18T20:01:54.622Z,11.99
2022-09-18T20:06:56.222Z,11.72
2022-09-18T20:11:57.762Z,11.81
2022-09-18T20:16:59.312Z,11.57
2022-09-18T20:22:02.726Z,11.74
2022-09-18T20:27:04.523Z,11.86
2022-09-18T20:32:06.149Z,11.89
2022-09-18T20:37:11.186Z,11.70
2022-09-18T20:42:12.865Z,11.38
2022-09-18T20:47:17.655Z,11.63
2022-09-18T20:52:20.174Z,11.41
2022-09-18T20:57:21.968Z,11.60
2022-09-18T21:02:25.482Z,11.63
2022-09-18T21:07:27.435Z,11.34
2022-09-18T21:12:37.396Z,11.19
2022-09-18T21:17:38.894Z,11.35
2022-09-18T21:23:00.379Z,11.30
2022-09-18T21:28:05.895Z,11.56
2022-09-18T21:33:08.633Z,11.26
2022-09-18T21:38:12.984Z,11.42
2022-09-18T21:43:17.225Z,11.36
2022-09-18T21:48:18.784Z,11.24
2022-09-18T21:53:20.289Z,11.26
2022-09-18T21:58:21.795Z,11.39
2022-09-18T22:03:23.411Z,11.54
2022-09-18T22:08:24.918Z,11.46
2022-09-18T22:13:29.730Z,11.31
2022-09-18T22:18:31.292Z,11.41
2022-09-18T22:23:32.886Z,11.63
2022-09-18T22:28:34.928Z,11.73
2022-09-18T22:33:36.493Z,11.74
2022-09-18T22:38:38.030Z,11.64
2022-09-18T22:43:39.858Z,11.44
2022-09-18T22:48:41.899Z,11.66
2022-09-18T22:53:48.722Z,11.72
2022-09-18T22:58:51.564Z,11.88
2022-09-18T23:03:55.719Z,11.75
2022-09-18T23:09:00.645Z,11.84
2022-09-18T23:14:04.595Z,11.77
2022-09-18T23:19:09.966Z,11.48
2022-09-18T23:24:12.334Z,11.63
2022-09-18T23:29:16.603Z,11.33
2022-09-18T23:34:20.149Z,11.65
2022-09-18T23:39:22.749Z,11.71
2022-09-18T23:44:24.416Z,11.50
2022-09-18T23:49:26.683Z,11.21
2022-09-18T23:54:30.686Z,11.44
2022-09-18T23:59:32.272Z,11.68
